Decoded Metar for CWLY (LYTTON (READAC) in BC, CANADA) (IATA:WLY) | Meteo·Mobile Aviation Weather
aviador You're here:

CWLY Decoded Metar

LYTTON (READAC) in BC, CANADA
Report Time2019-10-18 13:00:00
UTC Time2019-10-18 13:26:24
Flight Rules vfr VFR
Wind200° at 17 Gusting to 33 kt
Visibility9999 m
Phenomena:N/A
Clouds:Scattered 095 Hf
Expected CloudBase > 2,000 ft AGL from Temp-Dew spread
CeilingNone
Temp09°C (ISA -5)
Dew Point04°C (71% RH)
AAT1.6°C
QNH1002 hPa
Density Alt702 ft
Elevation751 ft
Report Wrong Elevation
Raw Report
CWLY 181300Z AUTO 20017G33KT 170V240 9SM SCT095 09/04 A2960 RMK
SLP027=

Extra information for CWLY:More info

Metar Taf Metar & Taf Last 4 Metars F.Rules Stats Wind Profile Meteogram Temp Stats Airport Information Weather charts Add Link Nearby VenuesMetar ALERT Operation Metar Decoded Social comments

CWLY Lytton Metcam